createdAt,value
2023-02-14T00:00:04.952Z,0.02
2023-02-14T00:02:33.049Z,-0.06
2023-02-14T00:05:02.571Z,-0.06
2023-02-14T00:07:30.569Z,-0.02
2023-02-14T00:09:58.500Z,-0.04
2023-02-14T00:12:26.458Z,-0.03
2023-02-14T00:15:11.660Z,-0.03
2023-02-14T00:17:39.606Z,-0.05
2023-02-14T00:20:09.956Z,-0.12
2023-02-14T00:22:37.940Z,-0.14
2023-02-14T00:25:06.241Z,-0.07
2023-02-14T00:27:34.206Z,-0.04
2023-02-14T00:30:03.332Z,0.00
2023-02-14T00:32:31.429Z,-0.03
2023-02-14T00:34:59.378Z,-0.03
2023-02-14T00:37:28.666Z,-0.05
2023-02-14T00:39:56.632Z,-0.05
2023-02-14T00:42:24.586Z,-0.04
2023-02-14T00:44:52.510Z,-0.03
2023-02-14T00:47:20.529Z,0.03
2023-02-14T00:49:48.496Z,-0.08
2023-02-14T00:52:16.443Z,-0.07
2023-02-14T00:54:45.737Z,-0.07
2023-02-14T00:57:13.684Z,-0.03
2023-02-14T00:59:41.640Z,-0.04
2023-02-14T01:02:09.661Z,-0.04
2023-02-14T01:04:37.688Z,0.02
2023-02-14T01:07:05.640Z,0.03
2023-02-14T01:09:33.786Z,0.14
2023-02-14T01:12:03.133Z,0.16
2023-02-14T01:14:31.082Z,0.21
2023-02-14T01:16:59.073Z,0.23
2023-02-14T01:19:27.065Z,0.19
2023-02-14T01:21:55.027Z,0.17
2023-02-14T01:24:23.005Z,0.04
2023-02-14T01:26:50.933Z,0.33
2023-02-14T01:29:20.279Z,0.40
2023-02-14T01:31:49.331Z,0.46
2023-02-14T01:34:17.329Z,0.49
2023-02-14T01:36:45.302Z,0.51
2023-02-14T01:39:14.092Z,0.54
2023-02-14T01:41:42.824Z,0.38
2023-02-14T01:44:44.014Z,0.66
2023-02-14T01:47:13.359Z,0.77
2023-02-14T01:49:42.300Z,0.87
2023-02-14T01:52:13.613Z,1.02
2023-02-14T01:54:42.588Z,1.18
2023-02-14T01:57:12.380Z,1.34
2023-02-14T01:59:42.132Z,1.44
2023-02-14T02:02:10.164Z,1.54
2023-02-14T02:04:40.401Z,1.61
2023-02-14T02:07:09.949Z,1.71
2023-02-14T02:09:40.894Z,1.68
2023-02-14T02:12:08.798Z,1.77
2023-02-14T02:14:36.726Z,1.74
2023-02-14T02:17:12.650Z,1.81
2023-02-14T02:19:58.137Z,1.85
2023-02-14T02:22:52.036Z,1.74
2023-02-14T02:25:27.554Z,1.70
2023-02-14T02:28:07.779Z,1.84
2023-02-14T02:31:04.792Z,1.84
2023-02-14T02:33:52.903Z,1.81
2023-02-14T02:36:58.991Z,1.92
2023-02-14T02:39:40.420Z,2.00
2023-02-14T02:42:12.010Z,2.15
2023-02-14T02:44:44.404Z,2.15
2023-02-14T02:47:17.917Z,2.36
2023-02-14T02:50:04.356Z,2.45
2023-02-14T02:52:52.390Z,2.55
2023-02-14T02:55:24.200Z,2.50
2023-02-14T02:57:51.152Z,2.78
2023-02-14T03:00:19.680Z,2.80
2023-02-14T03:03:06.059Z,2.90
2023-02-14T03:05:34.026Z,3.05
2023-02-14T03:08:02.013Z,3.04
2023-02-14T03:10:32.564Z,2.98
2023-02-14T03:13:19.949Z,3.06
2023-02-14T03:15:57.082Z,2.95
2023-02-14T03:18:51.722Z,2.94
2023-02-14T03:21:25.615Z,2.88
2023-02-14T03:23:55.955Z,2.97
2023-02-14T03:26:28.634Z,2.96
2023-02-14T03:29:00.803Z,2.94
2023-02-14T03:31:30.673Z,2.97
2023-02-14T03:34:00.358Z,3.01
2023-02-14T03:36:30.680Z,3.07
2023-02-14T03:39:00.904Z,3.09
2023-02-14T03:41:32.955Z,3.14
2023-02-14T03:44:01.811Z,3.09
2023-02-14T03:46:31.243Z,2.95
2023-02-14T03:49:00.712Z,2.86
2023-02-14T03:51:28.815Z,2.87
2023-02-14T03:53:58.055Z,2.85
2023-02-14T03:56:29.489Z,2.70
2023-02-14T03:59:00.011Z,2.71
2023-02-14T04:01:31.227Z,2.71
2023-02-14T04:03:59.220Z,2.81
2023-02-14T04:06:27.207Z,2.57
2023-02-14T04:08:55.186Z,2.83
2023-02-14T04:11:24.658Z,2.78
2023-02-14T04:13:52.734Z,2.84
2023-02-14T04:16:22.079Z,2.88
2023-02-14T04:19:07.593Z,2.90
2023-02-14T04:21:35.611Z,2.86
2023-02-14T04:24:03.522Z,3.03
2023-02-14T04:26:31.521Z,3.07
2023-02-14T04:28:59.459Z,3.17
2023-02-14T04:31:28.941Z,3.11
2023-02-14T04:33:56.970Z,3.10
2023-02-14T04:36:24.889Z,3.03
2023-02-14T04:38:52.809Z,3.10
2023-02-14T04:41:20.766Z,3.11
2023-02-14T04:43:48.703Z,3.15
2023-02-14T04:46:16.690Z,3.19
2023-02-14T04:48:46.030Z,3.29
2023-02-14T04:51:13.986Z,3.25
2023-02-14T04:53:41.954Z,3.29
2023-02-14T04:56:09.948Z,3.23
2023-02-14T04:58:37.866Z,3.25
2023-02-14T05:01:05.882Z,3.27
2023-02-14T05:03:33.865Z,3.35
2023-02-14T05:06:03.167Z,3.32
2023-02-14T05:08:31.088Z,3.43
2023-02-14T05:10:59.439Z,3.41
2023-02-14T05:13:28.599Z,3.45
2023-02-14T05:15:56.575Z,3.46
2023-02-14T05:18:24.581Z,3.48
2023-02-14T05:20:52.599Z,3.51
2023-02-14T05:23:22.113Z,3.55
2023-02-14T05:25:50.292Z,3.53
2023-02-14T05:28:18.255Z,3.51
2023-02-14T05:30:46.322Z,3.64
2023-02-14T05:33:14.371Z,3.54
2023-02-14T05:35:42.340Z,3.53
2023-02-14T05:38:10.270Z,3.56
2023-02-14T05:40:39.700Z,3.52
2023-02-14T05:43:07.666Z,3.56
2023-02-14T05:45:35.678Z,3.67
2023-02-14T05:48:03.700Z,3.71
2023-02-14T05:50:31.682Z,3.86
2023-02-14T05:52:59.637Z,3.91
2023-02-14T05:55:27.701Z,3.98
2023-02-14T05:57:57.004Z,4.02
2023-02-14T06:00:25.518Z,4.09
2023-02-14T06:02:53.490Z,4.08
2023-02-14T06:05:21.439Z,4.12
2023-02-14T06:07:50.793Z,4.16
2023-02-14T06:10:18.944Z,4.28
2023-02-14T06:12:46.963Z,4.38
2023-02-14T06:15:16.368Z,4.48
2023-02-14T06:17:44.281Z,4.60
2023-02-14T06:20:12.861Z,4.70
2023-02-14T06:22:40.827Z,4.78
2023-02-14T06:25:09.142Z,4.80
2023-02-14T06:27:37.050Z,4.79
2023-02-14T06:30:05.529Z,4.89
2023-02-14T06:32:34.879Z,4.95
2023-02-14T06:35:03.545Z,4.96
2023-02-14T06:37:31.557Z,5.00
2023-02-14T06:39:59.501Z,5.12
2023-02-14T06:42:27.467Z,5.24
2023-02-14T06:44:55.368Z,5.31
2023-02-14T06:47:23.289Z,5.44
2023-02-14T06:49:52.622Z,5.49
2023-02-14T06:52:20.611Z,5.62
2023-02-14T06:54:48.580Z,5.59
2023-02-14T06:57:16.492Z,5.66
2023-02-14T06:59:44.441Z,5.70
2023-02-14T07:02:12.545Z,5.81
2023-02-14T07:04:40.529Z,5.78
2023-02-14T07:07:09.864Z,5.91
2023-02-14T07:09:37.873Z,5.93
2023-02-14T07:12:06.100Z,5.97
2023-02-14T07:14:34.023Z,5.94
2023-02-14T07:17:01.999Z,6.02
2023-02-14T07:19:29.996Z,6.07
2023-02-14T07:21:57.964Z,6.10
2023-02-14T07:24:27.403Z,6.02
2023-02-14T07:26:55.318Z,5.94
2023-02-14T07:29:23.252Z,5.95
2023-02-14T07:31:51.248Z,6.10
2023-02-14T07:34:19.243Z,6.44
2023-02-14T07:36:47.165Z,6.47
2023-02-14T07:39:15.119Z,6.58
2023-02-14T07:41:44.487Z,6.57
2023-02-14T07:44:12.426Z,6.65
2023-02-14T07:46:40.436Z,6.45
2023-02-14T07:49:08.390Z,6.51
2023-02-14T07:51:36.455Z,6.58
2023-02-14T07:54:04.543Z,6.68
2023-02-14T07:56:32.484Z,6.70
2023-02-14T07:59:01.759Z,6.83
2023-02-14T08:01:29.700Z,6.83
2023-02-14T08:03:57.635Z,6.88
2023-02-14T08:06:26.105Z,6.98
2023-02-14T08:08:54.072Z,7.08
2023-02-14T08:11:35.845Z,7.41
2023-02-14T08:14:05.265Z,7.59
2023-02-14T08:16:34.597Z,7.42
2023-02-14T08:19:02.636Z,7.32
2023-02-14T08:21:30.718Z,7.47
2023-02-14T08:23:58.631Z,7.59
2023-02-14T08:26:26.622Z,7.69
2023-02-14T08:28:54.581Z,7.74
2023-02-14T08:31:36.663Z,7.86
2023-02-14T08:34:05.058Z,8.02
2023-02-14T08:36:33.084Z,8.04
2023-02-14T08:39:01.007Z,7.96
2023-02-14T08:41:28.900Z,8.04
2023-02-14T08:43:56.938Z,8.14
2023-02-14T08:46:26.305Z,8.17
2023-02-14T08:48:55.060Z,8.25
2023-02-14T08:51:23.086Z,8.10
2023-02-14T08:53:51.191Z,8.14
2023-02-14T08:56:20.250Z,8.40
2023-02-14T08:58:48.201Z,8.43
2023-02-14T09:01:17.194Z,8.76
2023-02-14T09:03:46.606Z,8.86
2023-02-14T09:06:17.111Z,8.88
2023-02-14T09:08:45.571Z,8.84
2023-02-14T09:11:15.220Z,8.76
2023-02-14T09:13:43.242Z,9.06
2023-02-14T09:16:14.568Z,9.36
2023-02-14T09:18:42.573Z,9.38
2023-02-14T09:21:12.944Z,9.42
2023-02-14T09:23:40.923Z,9.81
2023-02-14T09:26:10.230Z,10.32
2023-02-14T09:28:38.200Z,10.76
2023-02-14T09:31:10.266Z,10.31
2023-02-14T09:33:38.275Z,10.26
2023-02-14T09:36:12.836Z,9.65
2023-02-14T09:38:42.111Z,9.65
2023-02-14T09:41:10.517Z,9.82
2023-02-14T09:43:39.602Z,10.06
2023-02-14T09:46:07.626Z,10.08
2023-02-14T09:48:36.871Z,10.08
2023-02-14T09:51:06.146Z,9.89
2023-02-14T09:53:34.939Z,9.82
2023-02-14T09:56:07.462Z,9.85
2023-02-14T09:58:37.266Z,10.05
2023-02-14T10:01:10.889Z,10.31
2023-02-14T10:04:02.777Z,10.62
2023-02-14T10:06:43.058Z,10.94
2023-02-14T10:09:15.711Z,10.87
2023-02-14T10:11:46.294Z,10.29
2023-02-14T10:14:16.120Z,10.67
2023-02-14T10:16:45.398Z,10.97
2023-02-14T10:19:18.451Z,10.97
2023-02-14T10:21:49.552Z,11.17
2023-02-14T10:24:19.156Z,11.76
2023-02-14T10:26:49.141Z,11.83
2023-02-14T10:29:17.909Z,11.04
2023-02-14T10:31:50.348Z,11.38
2023-02-14T10:34:22.017Z,11.36
2023-02-14T10:36:56.983Z,10.68
2023-02-14T10:39:37.804Z,10.79
2023-02-14T10:42:11.516Z,11.30
2023-02-14T10:44:45.676Z,11.07
2023-02-14T10:47:22.187Z,11.27
2023-02-14T10:49:52.000Z,11.65
2023-02-14T10:52:23.614Z,12.47
2023-02-14T10:54:54.179Z,11.52
2023-02-14T10:57:25.020Z,11.44
2023-02-14T10:59:54.723Z,11.13
2023-02-14T11:02:24.574Z,10.64
2023-02-14T11:04:52.543Z,10.58
2023-02-14T11:07:22.427Z,10.65
2023-02-14T11:09:50.384Z,10.88
2023-02-14T11:12:37.474Z,10.69
2023-02-14T11:15:12.907Z,10.69
2023-02-14T11:17:40.859Z,11.59
2023-02-14T11:20:23.587Z,12.03
2023-02-14T11:22:51.566Z,11.31
2023-02-14T11:25:21.424Z,10.91
2023-02-14T11:27:52.797Z,10.69
2023-02-14T11:30:23.546Z,10.75
2023-02-14T11:32:55.142Z,10.63
2023-02-14T11:35:27.010Z,10.73
2023-02-14T11:37:55.492Z,10.36
2023-02-14T11:40:29.222Z,10.55
2023-02-14T11:43:13.421Z,10.06
2023-02-14T11:45:43.356Z,9.67
2023-02-14T11:48:31.498Z,9.27
2023-02-14T11:51:05.407Z,9.44
2023-02-14T11:53:38.916Z,9.05
2023-02-14T11:56:06.936Z,9.02
2023-02-14T11:58:38.427Z,9.18
2023-02-14T12:01:06.360Z,9.85
2023-02-14T12:03:39.386Z,10.80
2023-02-14T12:06:07.379Z,10.85
2023-02-14T12:08:39.026Z,10.78
2023-02-14T12:11:07.675Z,10.73
2023-02-14T12:13:36.998Z,10.88
2023-02-14T12:16:05.026Z,10.63
2023-02-14T12:18:48.630Z,10.39
2023-02-14T12:21:42.584Z,10.39
2023-02-14T12:24:18.469Z,10.18
2023-02-14T12:26:49.338Z,10.28
2023-02-14T12:29:22.212Z,10.46
2023-02-14T12:31:50.773Z,10.44
2023-02-14T12:34:18.966Z,10.77
2023-02-14T12:37:09.723Z,10.54
2023-02-14T12:39:41.501Z,10.08
2023-02-14T12:42:15.799Z,9.80
2023-02-14T12:44:47.216Z,10.03
2023-02-14T12:47:22.112Z,10.01
2023-02-14T12:50:26.845Z,9.92
2023-02-14T12:53:01.756Z,9.78
2023-02-14T12:55:35.717Z,9.61
2023-02-14T12:58:06.719Z,9.57
2023-02-14T13:00:39.398Z,9.83
2023-02-14T13:03:46.042Z,10.12
2023-02-14T13:06:16.455Z,10.04
2023-02-14T13:09:01.351Z,10.20
2023-02-14T13:11:35.804Z,10.12
2023-02-14T13:14:06.263Z,9.97
2023-02-14T13:16:37.850Z,9.96
2023-02-14T13:19:07.403Z,9.81
2023-02-14T13:21:36.746Z,9.76
2023-02-14T13:24:12.687Z,9.74
2023-02-14T13:26:41.416Z,9.72
2023-02-14T13:29:11.694Z,9.65
2023-02-14T13:31:41.121Z,9.38
2023-02-14T13:34:10.218Z,9.31
2023-02-14T13:36:38.157Z,9.54
2023-02-14T13:39:06.095Z,9.49
2023-02-14T13:41:34.400Z,9.61
2023-02-14T13:44:02.789Z,9.52
2023-02-14T13:46:52.416Z,9.43
2023-02-14T13:49:29.519Z,9.31
2023-02-14T13:51:58.739Z,9.01
2023-02-14T13:54:32.739Z,8.94
2023-02-14T13:57:00.832Z,8.71
2023-02-14T13:59:30.708Z,8.54
2023-02-14T14:02:31.709Z,8.16
2023-02-14T14:04:59.777Z,7.87
2023-02-14T14:07:30.783Z,7.77
2023-02-14T14:10:00.456Z,7.63
2023-02-14T14:12:46.631Z,7.59
2023-02-14T14:15:18.534Z,7.47
2023-02-14T14:18:04.087Z,7.41
2023-02-14T14:20:45.993Z,7.42
2023-02-14T14:23:35.410Z,7.32
2023-02-14T14:26:03.571Z,7.25
2023-02-14T14:28:32.777Z,7.28
2023-02-14T14:31:00.913Z,7.30
2023-02-14T14:33:31.763Z,7.18
2023-02-14T14:36:00.831Z,7.15
2023-02-14T14:38:29.184Z,7.08
2023-02-14T14:40:57.276Z,7.10
2023-02-14T14:43:30.315Z,6.96
2023-02-14T14:45:59.043Z,7.11
2023-02-14T14:48:31.629Z,7.24
2023-02-14T14:50:59.699Z,7.41
2023-02-14T14:53:29.354Z,7.34
2023-02-14T14:55:57.456Z,7.38
2023-02-14T14:58:34.366Z,7.40
2023-02-14T15:01:02.326Z,7.36
2023-02-14T15:03:31.814Z,7.35
2023-02-14T15:06:06.834Z,7.29
2023-02-14T15:08:34.968Z,7.09
2023-02-14T15:11:07.423Z,6.91
2023-02-14T15:13:49.728Z,6.70
2023-02-14T15:16:28.524Z,6.72
2023-02-14T15:19:00.096Z,6.63
2023-02-14T15:21:28.029Z,6.49
2023-02-14T15:23:56.005Z,6.42
2023-02-14T15:26:26.687Z,6.36
2023-02-14T15:28:58.528Z,6.26
2023-02-14T15:31:30.757Z,6.20
2023-02-14T15:34:01.499Z,6.16
2023-02-14T15:36:29.463Z,6.04
2023-02-14T15:38:57.789Z,5.93
2023-02-14T15:41:26.850Z,5.88
2023-02-14T15:43:55.837Z,5.78
2023-02-14T15:46:30.083Z,5.74
2023-02-14T15:49:01.378Z,5.73
2023-02-14T15:51:30.408Z,5.75
2023-02-14T15:53:59.313Z,5.74
2023-02-14T15:56:28.580Z,5.74
2023-02-14T15:59:00.811Z,5.73
2023-02-14T16:01:29.417Z,5.72
2023-02-14T16:03:58.620Z,5.64
2023-02-14T16:06:36.701Z,5.51
2023-02-14T16:09:06.531Z,5.37
2023-02-14T16:11:36.085Z,5.33
2023-02-14T16:14:29.960Z,5.29
2023-02-14T16:16:59.105Z,5.20
2023-02-14T16:19:35.065Z,5.17
2023-02-14T16:22:04.455Z,5.08
2023-02-14T16:24:32.372Z,5.04
2023-02-14T16:27:06.750Z,5.01
2023-02-14T16:29:35.509Z,5.00
2023-02-14T16:32:16.004Z,5.02
2023-02-14T16:34:44.394Z,5.04
2023-02-14T16:37:21.097Z,5.01
2023-02-14T16:39:49.096Z,5.05
2023-02-14T16:42:17.475Z,5.01
2023-02-14T16:44:45.411Z,4.99
2023-02-14T16:47:13.614Z,4.98
2023-02-14T16:49:42.066Z,4.90
2023-02-14T16:52:11.866Z,5.00
2023-02-14T16:54:41.189Z,5.09
2023-02-14T16:57:09.164Z,5.10
2023-02-14T16:59:37.128Z,5.07
2023-02-14T17:02:05.116Z,5.10
2023-02-14T17:04:33.095Z,5.05
2023-02-14T17:07:03.803Z,5.02
2023-02-14T17:09:32.938Z,4.96
2023-02-14T17:12:04.136Z,5.11
2023-02-14T17:14:35.304Z,5.18
2023-02-14T17:17:03.196Z,5.13
2023-02-14T17:19:31.605Z,5.13
2023-02-14T17:21:59.619Z,5.07
2023-02-14T17:24:27.628Z,5.07
2023-02-14T17:26:55.546Z,5.10
2023-02-14T17:29:24.867Z,5.13
2023-02-14T17:31:53.481Z,5.04
2023-02-14T17:34:21.526Z,5.02
2023-02-14T17:36:49.524Z,5.07
2023-02-14T17:39:18.715Z,5.05
2023-02-14T17:41:46.742Z,5.01
2023-02-14T17:44:14.765Z,5.01
2023-02-14T17:46:44.162Z,4.92
2023-02-14T17:49:12.244Z,5.07
2023-02-14T17:51:40.206Z,5.05
2023-02-14T17:54:08.228Z,5.04
2023-02-14T17:56:36.128Z,5.04
2023-02-14T17:59:04.094Z,5.06
2023-02-14T18:01:34.437Z,5.04
2023-02-14T18:04:05.717Z,5.00
2023-02-14T18:06:33.719Z,4.97
2023-02-14T18:09:01.661Z,5.09
2023-02-14T18:11:29.648Z,5.09
2023-02-14T18:13:59.412Z,5.10
2023-02-14T18:16:27.450Z,5.08
2023-02-14T18:18:55.837Z,5.08
2023-02-14T18:21:25.458Z,5.14
2023-02-14T18:23:53.427Z,5.12
2023-02-14T18:26:21.417Z,5.20
2023-02-14T18:28:51.155Z,5.24
2023-02-14T18:31:19.454Z,5.19
2023-02-14T18:33:48.268Z,5.20
2023-02-14T18:36:17.143Z,5.29
2023-02-14T18:38:47.326Z,5.17
2023-02-14T18:41:16.092Z,5.18
2023-02-14T18:43:44.619Z,5.19
2023-02-14T18:46:13.410Z,5.18
2023-02-14T18:48:41.395Z,5.23
2023-02-14T18:51:09.824Z,5.10
2023-02-14T18:53:37.801Z,5.08
2023-02-14T18:56:07.714Z,5.03
2023-02-14T18:58:35.678Z,5.06
2023-02-14T19:01:09.039Z,4.98
2023-02-14T19:03:37.087Z,4.95
2023-02-14T19:06:05.149Z,4.90
2023-02-14T19:08:33.289Z,4.99
2023-02-14T19:11:02.230Z,4.93
2023-02-14T19:13:32.314Z,4.95
2023-02-14T19:16:00.406Z,4.91
2023-02-14T19:18:28.382Z,5.00
2023-02-14T19:20:56.368Z,4.86
2023-02-14T19:23:24.311Z,4.83
2023-02-14T19:25:52.421Z,4.82
2023-02-14T19:28:20.317Z,4.85
2023-02-14T19:30:49.663Z,4.76
2023-02-14T19:33:17.583Z,4.77
2023-02-14T19:35:45.744Z,4.70
2023-02-14T19:38:13.671Z,4.69
2023-02-14T19:40:45.063Z,4.70
2023-02-14T19:43:12.989Z,4.70
2023-02-14T19:45:40.990Z,4.71
2023-02-14T19:48:10.686Z,4.62
2023-02-14T19:50:39.529Z,4.64
2023-02-14T19:53:07.525Z,4.65
2023-02-14T19:55:35.460Z,4.75
2023-02-14T19:58:03.381Z,4.69
2023-02-14T20:00:31.408Z,4.66
2023-02-14T20:03:01.576Z,4.53
2023-02-14T20:05:30.924Z,4.55
2023-02-14T20:07:59.156Z,4.54
2023-02-14T20:10:27.130Z,4.55
2023-02-14T20:12:55.118Z,4.61
2023-02-14T20:15:23.080Z,4.62
2023-02-14T20:17:51.039Z,4.56
2023-02-14T20:20:19.354Z,4.54
2023-02-14T20:22:48.716Z,4.63
2023-02-14T20:25:16.723Z,4.55
2023-02-14T20:27:44.690Z,4.52
2023-02-14T20:30:14.440Z,4.52
2023-02-14T20:32:42.448Z,4.43
2023-02-14T20:35:10.430Z,4.44
2023-02-14T20:37:38.410Z,4.45
2023-02-14T20:40:10.916Z,4.42
2023-02-14T20:42:39.694Z,4.36
2023-02-14T20:45:08.074Z,4.42
2023-02-14T20:47:36.039Z,4.38
2023-02-14T20:50:04.014Z,4.37
2023-02-14T20:52:31.992Z,4.32
2023-02-14T20:54:59.957Z,4.29
2023-02-14T20:57:29.918Z,4.38
2023-02-14T20:59:57.876Z,4.37
2023-02-14T21:02:25.801Z,4.35
2023-02-14T21:04:53.731Z,4.37
2023-02-14T21:07:22.624Z,4.40
2023-02-14T21:09:50.569Z,4.46
2023-02-14T21:12:18.499Z,4.44
2023-02-14T21:14:47.820Z,4.44
2023-02-14T21:17:15.769Z,4.48
2023-02-14T21:19:43.731Z,4.60
2023-02-14T21:22:11.829Z,4.73
2023-02-14T21:24:39.782Z,4.77
2023-02-14T21:27:07.722Z,4.88
2023-02-14T21:29:35.666Z,4.96
2023-02-14T21:32:05.206Z,5.04
2023-02-14T21:34:33.384Z,5.07
2023-02-14T21:37:01.358Z,5.17
2023-02-14T21:39:31.083Z,5.19
2023-02-14T21:41:59.741Z,5.13
2023-02-14T21:44:45.108Z,5.15
2023-02-14T21:47:14.413Z,5.24
2023-02-14T21:50:04.957Z,5.33
2023-02-14T21:52:32.940Z,5.39
2023-02-14T21:55:00.898Z,5.30
2023-02-14T21:57:29.048Z,5.28
2023-02-14T21:59:57.015Z,5.32
2023-02-14T22:02:26.358Z,5.30
2023-02-14T22:04:54.303Z,5.33
2023-02-14T22:07:22.205Z,5.32
2023-02-14T22:09:50.125Z,5.30
2023-02-14T22:12:18.020Z,5.25
2023-02-14T22:14:45.948Z,5.27
2023-02-14T22:17:13.906Z,5.35
2023-02-14T22:19:43.218Z,5.35
2023-02-14T22:22:11.210Z,5.33
2023-02-14T22:24:39.115Z,5.32
2023-02-14T22:27:07.089Z,5.20
2023-02-14T22:29:35.047Z,5.31
2023-02-14T22:32:03.043Z,5.30
2023-02-14T22:34:31.085Z,5.29
2023-02-14T22:37:00.387Z,5.26
2023-02-14T22:39:28.347Z,5.21
2023-02-14T22:41:56.263Z,5.22
2023-02-14T22:44:24.249Z,5.18
2023-02-14T22:46:52.227Z,5.19
2023-02-14T22:49:20.222Z,5.27
2023-02-14T22:51:48.161Z,5.17
2023-02-14T22:54:17.649Z,5.18
2023-02-14T22:56:46.027Z,5.13
2023-02-14T22:59:16.605Z,4.99
2023-02-14T23:01:44.658Z,5.18
2023-02-14T23:04:12.630Z,5.16
2023-02-14T23:06:40.589Z,5.12
2023-02-14T23:09:09.099Z,5.13
2023-02-14T23:11:39.455Z,5.11
2023-02-14T23:14:24.687Z,5.03
2023-02-14T23:17:18.536Z,4.94
2023-02-14T23:20:04.028Z,4.83
2023-02-14T23:22:32.913Z,4.75
2023-02-14T23:25:01.853Z,4.71
2023-02-14T23:27:33.068Z,4.68
2023-02-14T23:30:01.196Z,4.64
2023-02-14T23:32:29.331Z,4.61
2023-02-14T23:34:57.284Z,4.46
2023-02-14T23:37:25.252Z,4.40
2023-02-14T23:39:53.199Z,4.29
2023-02-14T23:42:21.190Z,4.27
2023-02-14T23:44:50.489Z,4.16
2023-02-14T23:47:19.419Z,4.15
2023-02-14T23:49:47.585Z,4.13
2023-02-14T23:52:15.526Z,4.16
2023-02-14T23:54:43.489Z,4.12
2023-02-14T23:57:11.402Z,4.08
2023-02-14T23:59:39.414Z,4.11
